sensor_id;sensor_type;location;lat;lon;timestamp;temperature;humidity
17998;DHT22;9124;48.144;17.098;2024-01-27T00:02:03;5.60;99.90
17998;DHT22;9124;48.144;17.098;2024-01-27T00:06:32;5.70;99.90
17998;DHT22;9124;48.144;17.098;2024-01-27T00:10:58;5.60;99.90
17998;DHT22;9124;48.144;17.098;2024-01-27T00:15:27;5.60;99.90
17998;DHT22;9124;48.144;17.098;2024-01-27T00:19:54;5.60;99.90
17998;DHT22;9124;48.144;17.098;2024-01-27T00:24:21;5.60;99.90
17998;DHT22;9124;48.144;17.098;2024-01-27T00:28:47;5.50;99.90
17998;DHT22;9124;48.144;17.098;2024-01-27T00:33:16;5.60;99.90
17998;DHT22;9124;48.144;17.098;2024-01-27T00:37:42;5.50;99.90
17998;DHT22;9124;48.144;17.098;2024-01-27T00:42:10;5.50;99.90
17998;DHT22;9124;48.144;17.098;2024-01-27T00:46:40;5.50;99.90
17998;DHT22;9124;48.144;17.098;2024-01-27T00:51:07;5.50;99.90
17998;DHT22;9124;48.144;17.098;2024-01-27T00:55:33;5.60;99.90
17998;DHT22;9124;48.144;17.098;2024-01-27T01:00:00;5.70;99.90
17998;DHT22;9124;48.144;17.098;2024-01-27T01:04:27;5.80;99.90
17998;DHT22;9124;48.144;17.098;2024-01-27T01:08:54;5.80;99.90
17998;DHT22;9124;48.144;17.098;2024-01-27T01:13:21;5.80;99.90
17998;DHT22;9124;48.144;17.098;2024-01-27T01:17:47;5.80;99.90
17998;DHT22;9124;48.144;17.098;2024-01-27T01:22:14;5.70;99.90
17998;DHT22;9124;48.144;17.098;2024-01-27T01:26:41;5.70;99.90
17998;DHT22;9124;48.144;17.098;2024-01-27T01:31:07;5.70;99.90
17998;DHT22;9124;48.144;17.098;2024-01-27T01:35:34;5.70;99.90
17998;DHT22;9124;48.144;17.098;2024-01-27T01:40:02;5.80;99.90
17998;DHT22;9124;48.144;17.098;2024-01-27T01:44:30;5.70;99.90
17998;DHT22;9124;48.144;17.098;2024-01-27T01:48:58;5.70;99.90
17998;DHT22;9124;48.144;17.098;2024-01-27T01:53:25;5.50;99.90
17998;DHT22;9124;48.144;17.098;2024-01-27T01:57:52;5.40;99.90
17998;DHT22;9124;48.144;17.098;2024-01-27T02:02:18;5.40;99.90
17998;DHT22;9124;48.144;17.098;2024-01-27T02:06:47;5.40;99.90
17998;DHT22;9124;48.144;17.098;2024-01-27T02:11:13;5.30;99.90
17998;DHT22;9124;48.144;17.098;2024-01-27T02:15:40;5.30;99.90
17998;DHT22;9124;48.144;17.098;2024-01-27T02:20:07;5.30;99.90
17998;DHT22;9124;48.144;17.098;2024-01-27T02:24:36;5.30;99.90
17998;DHT22;9124;48.144;17.098;2024-01-27T02:29:02;5.30;99.90
17998;DHT22;9124;48.144;17.098;2024-01-27T02:33:30;5.20;99.90
17998;DHT22;9124;48.144;17.098;2024-01-27T02:37:56;5.20;99.90
17998;DHT22;9124;48.144;17.098;2024-01-27T02:42:23;5.30;99.90
17998;DHT22;9124;48.144;17.098;2024-01-27T02:46:49;5.20;99.90
17998;DHT22;9124;48.144;17.098;2024-01-27T02:51:19;5.10;99.90
17998;DHT22;9124;48.144;17.098;2024-01-27T02:55:46;5.10;99.90
17998;DHT22;9124;48.144;17.098;2024-01-27T03:00:13;5.10;99.90
17998;DHT22;9124;48.144;17.098;2024-01-27T03:04:39;5.10;99.90
17998;DHT22;9124;48.144;17.098;2024-01-27T03:09:08;5.10;99.90
17998;DHT22;9124;48.144;17.098;2024-01-27T03:13:34;5.00;99.90
17998;DHT22;9124;48.144;17.098;2024-01-27T03:18:04;4.90;99.90
17998;DHT22;9124;48.144;17.098;2024-01-27T03:22:30;4.90;99.90
17998;DHT22;9124;48.144;17.098;2024-01-27T03:26:57;4.90;99.90
17998;DHT22;9124;48.144;17.098;2024-01-27T03:31:23;4.90;99.90
17998;DHT22;9124;48.144;17.098;2024-01-27T03:35:56;4.90;99.90
17998;DHT22;9124;48.144;17.098;2024-01-27T03:40:22;4.80;99.90
17998;DHT22;9124;48.144;17.098;2024-01-27T03:44:52;4.80;99.90
17998;DHT22;9124;48.144;17.098;2024-01-27T03:49:18;4.90;99.90
17998;DHT22;9124;48.144;17.098;2024-01-27T03:53:48;4.80;99.90
17998;DHT22;9124;48.144;17.098;2024-01-27T03:58:14;4.80;99.90
17998;DHT22;9124;48.144;17.098;2024-01-27T04:02:40;4.80;99.90
17998;DHT22;9124;48.144;17.098;2024-01-27T04:07:09;4.80;99.90
17998;DHT22;9124;48.144;17.098;2024-01-27T04:11:36;4.70;99.90
17998;DHT22;9124;48.144;17.098;2024-01-27T04:16:04;4.80;99.90
17998;DHT22;9124;48.144;17.098;2024-01-27T04:20:30;4.80;99.90
17998;DHT22;9124;48.144;17.098;2024-01-27T04:24:57;4.80;99.90
17998;DHT22;9124;48.144;17.098;2024-01-27T04:29:23;4.70;99.90
17998;DHT22;9124;48.144;17.098;2024-01-27T04:33:49;4.70;99.90
17998;DHT22;9124;48.144;17.098;2024-01-27T04:38:16;4.60;99.90
17998;DHT22;9124;48.144;17.098;2024-01-27T04:42:42;4.60;99.90
17998;DHT22;9124;48.144;17.098;2024-01-27T04:47:08;4.60;99.90
17998;DHT22;9124;48.144;17.098;2024-01-27T04:51:35;4.60;99.90
17998;DHT22;9124;48.144;17.098;2024-01-27T04:56:01;4.60;99.90
17998;DHT22;9124;48.144;17.098;2024-01-27T05:00:28;4.60;99.90
17998;DHT22;9124;48.144;17.098;2024-01-27T05:04:54;4.70;99.90
17998;DHT22;9124;48.144;17.098;2024-01-27T05:09:21;4.70;99.90
17998;DHT22;9124;48.144;17.098;2024-01-27T05:13:47;4.70;99.90
17998;DHT22;9124;48.144;17.098;2024-01-27T05:18:15;4.70;99.90
17998;DHT22;9124;48.144;17.098;2024-01-27T05:22:41;4.70;99.90
17998;DHT22;9124;48.144;17.098;2024-01-27T05:27:08;4.60;99.90
17998;DHT22;9124;48.144;17.098;2024-01-27T05:31:34;4.50;99.90
17998;DHT22;9124;48.144;17.098;2024-01-27T05:36:01;4.60;99.90
17998;DHT22;9124;48.144;17.098;2024-01-27T05:40:27;4.60;99.90
17998;DHT22;9124;48.144;17.098;2024-01-27T05:44:54;4.60;99.90
17998;DHT22;9124;48.144;17.098;2024-01-27T05:49:20;4.60;99.90
17998;DHT22;9124;48.144;17.098;2024-01-27T05:53:48;4.50;99.90
17998;DHT22;9124;48.144;17.098;2024-01-27T05:58:14;4.50;99.90
17998;DHT22;9124;48.144;17.098;2024-01-27T06:02:42;4.40;99.90
17998;DHT22;9124;48.144;17.098;2024-01-27T06:07:10;4.40;99.90
17998;DHT22;9124;48.144;17.098;2024-01-27T06:11:37;4.40;99.90
17998;DHT22;9124;48.144;17.098;2024-01-27T06:16:08;4.30;99.90
17998;DHT22;9124;48.144;17.098;2024-01-27T06:20:37;4.30;99.90
17998;DHT22;9124;48.144;17.098;2024-01-27T06:25:08;4.30;99.90
17998;DHT22;9124;48.144;17.098;2024-01-27T06:29:34;4.20;99.90
17998;DHT22;9124;48.144;17.098;2024-01-27T06:34:03;4.20;99.90
17998;DHT22;9124;48.144;17.098;2024-01-27T06:38:29;4.20;99.90
17998;DHT22;9124;48.144;17.098;2024-01-27T06:42:58;4.10;99.90
17998;DHT22;9124;48.144;17.098;2024-01-27T06:47:24;4.10;99.90
17998;DHT22;9124;48.144;17.098;2024-01-27T06:51:51;4.20;99.90
17998;DHT22;9124;48.144;17.098;2024-01-27T06:56:17;4.20;99.90
17998;DHT22;9124;48.144;17.098;2024-01-27T07:00:46;4.20;99.90
17998;DHT22;9124;48.144;17.098;2024-01-27T07:05:15;4.20;99.90
17998;DHT22;9124;48.144;17.098;2024-01-27T07:09:41;4.30;99.90
17998;DHT22;9124;48.144;17.098;2024-01-27T07:14:10;4.30;99.90
17998;DHT22;9124;48.144;17.098;2024-01-27T07:18:36;4.30;99.90
17998;DHT22;9124;48.144;17.098;2024-01-27T07:23:03;4.30;99.90
17998;DHT22;9124;48.144;17.098;2024-01-27T07:27:30;4.40;99.90
17998;DHT22;9124;48.144;17.098;2024-01-27T07:31:59;4.40;99.90
17998;DHT22;9124;48.144;17.098;2024-01-27T07:36:25;4.50;99.90
17998;DHT22;9124;48.144;17.098;2024-01-27T07:40:52;4.60;99.90
17998;DHT22;9124;48.144;17.098;2024-01-27T07:45:18;4.60;99.80
17998;DHT22;9124;48.144;17.098;2024-01-27T07:49:45;4.70;99.60
17998;DHT22;9124;48.144;17.098;2024-01-27T07:54:11;4.70;99.40
17998;DHT22;9124;48.144;17.098;2024-01-27T07:58:38;4.80;99.30
17998;DHT22;9124;48.144;17.098;2024-01-27T08:03:04;4.80;99.10
17998;DHT22;9124;48.144;17.098;2024-01-27T08:07:31;4.90;98.70
17998;DHT22;9124;48.144;17.098;2024-01-27T08:12:00;4.90;98.30
17998;DHT22;9124;48.144;17.098;2024-01-27T08:16:27;5.00;97.70
17998;DHT22;9124;48.144;17.098;2024-01-27T08:20:56;5.10;97.10
17998;DHT22;9124;48.144;17.098;2024-01-27T08:25:22;5.10;96.70
17998;DHT22;9124;48.144;17.098;2024-01-27T08:29:50;5.20;95.90
17998;DHT22;9124;48.144;17.098;2024-01-27T08:34:16;5.20;95.50
17998;DHT22;9124;48.144;17.098;2024-01-27T08:38:43;5.30;95.20
17998;DHT22;9124;48.144;17.098;2024-01-27T08:43:09;5.40;94.90
17998;DHT22;9124;48.144;17.098;2024-01-27T08:47:36;5.40;94.70
17998;DHT22;9124;48.144;17.098;2024-01-27T08:52:02;5.40;94.60
17998;DHT22;9124;48.144;17.098;2024-01-27T08:56:29;5.50;94.50
17998;DHT22;9124;48.144;17.098;2024-01-27T09:00:55;5.60;94.00
17998;DHT22;9124;48.144;17.098;2024-01-27T09:05:22;6.40;95.30
17998;DHT22;9124;48.144;17.098;2024-01-27T09:09:49;10.90;91.80
17998;DHT22;9124;48.144;17.098;2024-01-27T09:14:15;15.90;85.10
17998;DHT22;9124;48.144;17.098;2024-01-27T09:18:41;18.70;70.20
17998;DHT22;9124;48.144;17.098;2024-01-27T09:23:09;19.50;64.40
17998;DHT22;9124;48.144;17.098;2024-01-27T09:27:35;16.90;61.90
17998;DHT22;9124;48.144;17.098;2024-01-27T09:32:04;13.80;61.20
17998;DHT22;9124;48.144;17.098;2024-01-27T09:36:30;12.70;62.60
17998;DHT22;9124;48.144;17.098;2024-01-27T09:40:57;13.40;62.80
17998;DHT22;9124;48.144;17.098;2024-01-27T09:45:23;13.00;62.00
17998;DHT22;9124;48.144;17.098;2024-01-27T09:49:50;15.50;61.80
17998;DHT22;9124;48.144;17.098;2024-01-27T09:54:17;17.40;57.60
17998;DHT22;9124;48.144;17.098;2024-01-27T09:58:49;18.00;55.60
17998;DHT22;9124;48.144;17.098;2024-01-27T10:03:18;19.80;53.30
17998;DHT22;9124;48.144;17.098;2024-01-27T10:07:46;20.90;51.30
17998;DHT22;9124;48.144;17.098;2024-01-27T10:12:14;21.30;49.50
17998;DHT22;9124;48.144;17.098;2024-01-27T10:16:45;21.40;47.30
17998;DHT22;9124;48.144;17.098;2024-01-27T10:21:18;21.20;46.50
17998;DHT22;9124;48.144;17.098;2024-01-27T10:25:46;21.20;45.50
17998;DHT22;9124;48.144;17.098;2024-01-27T10:30:16;20.70;44.40
17998;DHT22;9124;48.144;17.098;2024-01-27T10:34:45;19.80;44.20
17998;DHT22;9124;48.144;17.098;2024-01-27T10:39:21;18.60;44.30
17998;DHT22;9124;48.144;17.098;2024-01-27T10:43:50;18.70;45.20
17998;DHT22;9124;48.144;17.098;2024-01-27T10:48:23;17.90;44.80
17998;DHT22;9124;48.144;17.098;2024-01-27T10:52:52;17.40;46.00
17998;DHT22;9124;48.144;17.098;2024-01-27T10:57:21;17.90;45.60
17998;DHT22;9124;48.144;17.098;2024-01-27T11:01:52;18.60;45.20
17998;DHT22;9124;48.144;17.098;2024-01-27T11:06:21;19.00;43.80
17998;DHT22;9124;48.144;17.098;2024-01-27T11:10:48;19.00;43.30
17998;DHT22;9124;48.144;17.098;2024-01-27T11:15:17;18.40;42.40
17998;DHT22;9124;48.144;17.098;2024-01-27T11:19:44;14.80;41.10
17998;DHT22;9124;48.144;17.098;2024-01-27T11:24:16;11.90;43.70
17998;DHT22;9124;48.144;17.098;2024-01-27T11:28:42;10.20;46.20
17998;DHT22;9124;48.144;17.098;2024-01-27T11:33:09;9.20;48.30
17998;DHT22;9124;48.144;17.098;2024-01-27T11:37:36;8.50;49.60
17998;DHT22;9124;48.144;17.098;2024-01-27T11:42:08;8.10;51.00
17998;DHT22;9124;48.144;17.098;2024-01-27T11:46:35;7.80;51.80
17998;DHT22;9124;48.144;17.098;2024-01-27T11:51:07;7.60;52.90
17998;DHT22;9124;48.144;17.098;2024-01-27T11:55:37;7.30;53.70
17998;DHT22;9124;48.144;17.098;2024-01-27T12:00:07;7.20;54.40
17998;DHT22;9124;48.144;17.098;2024-01-27T12:04:35;7.00;54.80
17998;DHT22;9124;48.144;17.098;2024-01-27T12:09:01;6.90;55.20
17998;DHT22;9124;48.144;17.098;2024-01-27T12:13:28;6.80;56.00
17998;DHT22;9124;48.144;17.098;2024-01-27T12:17:54;6.80;56.40
17998;DHT22;9124;48.144;17.098;2024-01-27T12:22:23;6.70;56.60
17998;DHT22;9124;48.144;17.098;2024-01-27T12:26:50;6.70;57.00
17998;DHT22;9124;48.144;17.098;2024-01-27T12:31:23;6.60;57.20
17998;DHT22;9124;48.144;17.098;2024-01-27T12:35:50;6.60;57.60
17998;DHT22;9124;48.144;17.098;2024-01-27T12:40:21;6.60;58.10
17998;DHT22;9124;48.144;17.098;2024-01-27T12:44:47;6.60;58.20
17998;DHT22;9124;48.144;17.098;2024-01-27T12:49:14;6.70;58.40
17998;DHT22;9124;48.144;17.098;2024-01-27T12:53:42;6.90;58.70
17998;DHT22;9124;48.144;17.098;2024-01-27T12:58:10;7.00;58.70
17998;DHT22;9124;48.144;17.098;2024-01-27T13:02:37;6.90;58.70
17998;DHT22;9124;48.144;17.098;2024-01-27T13:07:03;6.90;58.90
17998;DHT22;9124;48.144;17.098;2024-01-27T13:11:30;6.80;59.20
17998;DHT22;9124;48.144;17.098;2024-01-27T13:15:56;6.60;59.40
17998;DHT22;9124;48.144;17.098;2024-01-27T13:20:22;6.50;59.70
17998;DHT22;9124;48.144;17.098;2024-01-27T13:24:49;6.40;59.50
17998;DHT22;9124;48.144;17.098;2024-01-27T13:29:15;6.60;60.40
17998;DHT22;9124;48.144;17.098;2024-01-27T13:33:42;6.90;60.50
17998;DHT22;9124;48.144;17.098;2024-01-27T13:38:09;7.40;60.60
17998;DHT22;9124;48.144;17.098;2024-01-27T13:42:36;7.70;60.10
17998;DHT22;9124;48.144;17.098;2024-01-27T13:47:06;7.70;59.80
17998;DHT22;9124;48.144;17.098;2024-01-27T13:51:35;7.60;59.70
17998;DHT22;9124;48.144;17.098;2024-01-27T13:56:02;7.40;59.90
17998;DHT22;9124;48.144;17.098;2024-01-27T14:00:28;7.30;60.20
17998;DHT22;9124;48.144;17.098;2024-01-27T14:04:55;7.30;60.40
17998;DHT22;9124;48.144;17.098;2024-01-27T14:09:23;7.30;60.50
17998;DHT22;9124;48.144;17.098;2024-01-27T14:13:50;7.30;60.70
17998;DHT22;9124;48.144;17.098;2024-01-27T14:18:16;7.30;60.80
17998;DHT22;9124;48.144;17.098;2024-01-27T14:22:46;7.40;60.80
17998;DHT22;9124;48.144;17.098;2024-01-27T14:27:13;7.50;60.90
17998;DHT22;9124;48.144;17.098;2024-01-27T14:31:39;7.60;60.90
17998;DHT22;9124;48.144;17.098;2024-01-27T14:36:06;7.60;60.70
17998;DHT22;9124;48.144;17.098;2024-01-27T14:40:33;7.50;60.80
17998;DHT22;9124;48.144;17.098;2024-01-27T14:44:59;7.40;60.90
17998;DHT22;9124;48.144;17.098;2024-01-27T14:49:25;7.40;61.10
17998;DHT22;9124;48.144;17.098;2024-01-27T14:53:54;7.30;61.30
17998;DHT22;9124;48.144;17.098;2024-01-27T14:58:21;7.40;61.40
17998;DHT22;9124;48.144;17.098;2024-01-27T15:02:48;7.40;61.50
17998;DHT22;9124;48.144;17.098;2024-01-27T15:07:16;7.40;61.60
17998;DHT22;9124;48.144;17.098;2024-01-27T15:11:43;7.30;61.70
17998;DHT22;9124;48.144;17.098;2024-01-27T15:16:10;7.30;61.80
17998;DHT22;9124;48.144;17.098;2024-01-27T15:20:36;7.30;62.00
17998;DHT22;9124;48.144;17.098;2024-01-27T15:25:03;7.20;62.20
17998;DHT22;9124;48.144;17.098;2024-01-27T15:29:29;7.00;62.20
17998;DHT22;9124;48.144;17.098;2024-01-27T15:33:56;6.80;62.40
17998;DHT22;9124;48.144;17.098;2024-01-27T15:38:22;6.60;62.70
17998;DHT22;9124;48.144;17.098;2024-01-27T15:42:49;6.50;62.90
17998;DHT22;9124;48.144;17.098;2024-01-27T15:47:16;6.30;63.30
17998;DHT22;9124;48.144;17.098;2024-01-27T15:51:43;6.30;63.60
17998;DHT22;9124;48.144;17.098;2024-01-27T15:56:10;6.20;63.80
17998;DHT22;9124;48.144;17.098;2024-01-27T16:00:36;6.10;63.90
17998;DHT22;9124;48.144;17.098;2024-01-27T16:05:07;5.90;64.10
17998;DHT22;9124;48.144;17.098;2024-01-27T16:09:34;5.70;64.30
17998;DHT22;9124;48.144;17.098;2024-01-27T16:14:05;5.60;64.60
17998;DHT22;9124;48.144;17.098;2024-01-27T16:18:31;5.50;64.80
17998;DHT22;9124;48.144;17.098;2024-01-27T16:22:59;5.50;65.40
17998;DHT22;9124;48.144;17.098;2024-01-27T16:27:25;5.70;65.50
17998;DHT22;9124;48.144;17.098;2024-01-27T16:31:55;5.80;65.60
17998;DHT22;9124;48.144;17.098;2024-01-27T16:36:21;6.00;65.90
17998;DHT22;9124;48.144;17.098;2024-01-27T16:40:48;6.00;65.70
17998;DHT22;9124;48.144;17.098;2024-01-27T16:45:14;6.00;65.80
17998;DHT22;9124;48.144;17.098;2024-01-27T16:49:41;6.00;65.90
17998;DHT22;9124;48.144;17.098;2024-01-27T16:54:09;6.00;66.10
17998;DHT22;9124;48.144;17.098;2024-01-27T16:58:40;6.00;66.20
17998;DHT22;9124;48.144;17.098;2024-01-27T17:03:12;6.00;66.30
17998;DHT22;9124;48.144;17.098;2024-01-27T17:07:40;5.90;66.40
17998;DHT22;9124;48.144;17.098;2024-01-27T17:12:09;5.80;66.50
17998;DHT22;9124;48.144;17.098;2024-01-27T17:16:37;5.70;66.80
17998;DHT22;9124;48.144;17.098;2024-01-27T17:21:04;5.50;66.90
17998;DHT22;9124;48.144;17.098;2024-01-27T17:25:30;5.30;67.20
17998;DHT22;9124;48.144;17.098;2024-01-27T17:29:59;5.10;67.30
17998;DHT22;9124;48.144;17.098;2024-01-27T17:34:29;5.00;67.70
17998;DHT22;9124;48.144;17.098;2024-01-27T17:38:58;4.90;67.90
17998;DHT22;9124;48.144;17.098;2024-01-27T17:43:24;4.80;68.20
17998;DHT22;9124;48.144;17.098;2024-01-27T17:47:51;4.70;68.50
17998;DHT22;9124;48.144;17.098;2024-01-27T17:52:18;4.70;68.60
17998;DHT22;9124;48.144;17.098;2024-01-27T17:56:48;4.60;68.70
17998;DHT22;9124;48.144;17.098;2024-01-27T18:01:15;4.50;69.10
17998;DHT22;9124;48.144;17.098;2024-01-27T18:05:42;4.50;69.80
17998;DHT22;9124;48.144;17.098;2024-01-27T18:10:15;4.50;69.50
17998;DHT22;9124;48.144;17.098;2024-01-27T18:14:41;4.50;69.70
17998;DHT22;9124;48.144;17.098;2024-01-27T18:19:07;4.60;69.80
17998;DHT22;9124;48.144;17.098;2024-01-27T18:23:34;4.60;70.60
17998;DHT22;9124;48.144;17.098;2024-01-27T18:28:00;4.70;70.20
17998;DHT22;9124;48.144;17.098;2024-01-27T18:32:27;4.60;70.00
17998;DHT22;9124;48.144;17.098;2024-01-27T18:36:53;4.40;70.30
17998;DHT22;9124;48.144;17.098;2024-01-27T18:41:20;4.30;70.40
17998;DHT22;9124;48.144;17.098;2024-01-27T18:45:46;4.30;71.50
17998;DHT22;9124;48.144;17.098;2024-01-27T18:50:13;4.40;71.00
17998;DHT22;9124;48.144;17.098;2024-01-27T18:54:39;4.20;70.80
17998;DHT22;9124;48.144;17.098;2024-01-27T18:59:07;4.10;71.10
17998;DHT22;9124;48.144;17.098;2024-01-27T19:03:59;4.00;71.30
17998;DHT22;9124;48.144;17.098;2024-01-27T19:08:26;3.90;71.80
17998;DHT22;9124;48.144;17.098;2024-01-27T19:12:52;3.90;71.80
17998;DHT22;9124;48.144;17.098;2024-01-27T19:17:18;3.90;72.10
17998;DHT22;9124;48.144;17.098;2024-01-27T19:21:45;3.80;72.30
17998;DHT22;9124;48.144;17.098;2024-01-27T19:26:11;3.70;72.40
17998;DHT22;9124;48.144;17.098;2024-01-27T19:30:38;3.80;72.70
17998;DHT22;9124;48.144;17.098;2024-01-27T19:35:04;3.70;72.80
17998;DHT22;9124;48.144;17.098;2024-01-27T19:39:31;3.70;73.10
17998;DHT22;9124;48.144;17.098;2024-01-27T19:43:57;3.70;73.30
17998;DHT22;9124;48.144;17.098;2024-01-27T19:48:26;3.60;73.40
17998;DHT22;9124;48.144;17.098;2024-01-27T19:52:52;3.50;73.60
17998;DHT22;9124;48.144;17.098;2024-01-27T19:57:21;3.50;73.80
17998;DHT22;9124;48.144;17.098;2024-01-27T20:01:47;3.40;73.90
17998;DHT22;9124;48.144;17.098;2024-01-27T20:06:14;3.40;74.20
17998;DHT22;9124;48.144;17.098;2024-01-27T20:10:41;3.40;74.60
17998;DHT22;9124;48.144;17.098;2024-01-27T20:15:10;3.30;74.60
17998;DHT22;9124;48.144;17.098;2024-01-27T20:19:36;3.30;74.80
17998;DHT22;9124;48.144;17.098;2024-01-27T20:24:04;3.20;75.00
17998;DHT22;9124;48.144;17.098;2024-01-27T20:28:30;3.20;75.40
17998;DHT22;9124;48.144;17.098;2024-01-27T20:32:57;3.10;75.40
17998;DHT22;9124;48.144;17.098;2024-01-27T20:37:24;3.10;75.60
17998;DHT22;9124;48.144;17.098;2024-01-27T20:41:53;3.00;75.80
17998;DHT22;9124;48.144;17.098;2024-01-27T20:46:22;2.90;76.10
17998;DHT22;9124;48.144;17.098;2024-01-27T20:50:54;2.80;76.60
17998;DHT22;9124;48.144;17.098;2024-01-27T20:55:21;2.80;76.70
17998;DHT22;9124;48.144;17.098;2024-01-27T20:59:48;2.80;77.00
17998;DHT22;9124;48.144;17.098;2024-01-27T21:04:14;2.80;77.30
17998;DHT22;9124;48.144;17.098;2024-01-27T21:08:42;2.70;77.40
17998;DHT22;9124;48.144;17.098;2024-01-27T21:13:08;2.60;77.80
17998;DHT22;9124;48.144;17.098;2024-01-27T21:17:36;2.60;78.20
17998;DHT22;9124;48.144;17.098;2024-01-27T21:22:03;2.50;78.80
17998;DHT22;9124;48.144;17.098;2024-01-27T21:26:30;2.50;79.20
17998;DHT22;9124;48.144;17.098;2024-01-27T21:30:56;2.50;79.50
17998;DHT22;9124;48.144;17.098;2024-01-27T21:35:25;2.50;79.90
17998;DHT22;9124;48.144;17.098;2024-01-27T21:39:51;2.50;80.70
17998;DHT22;9124;48.144;17.098;2024-01-27T21:44:41;2.50;81.00
17998;DHT22;9124;48.144;17.098;2024-01-27T21:49:07;2.50;81.70
17998;DHT22;9124;48.144;17.098;2024-01-27T21:53:34;2.50;82.30
17998;DHT22;9124;48.144;17.098;2024-01-27T21:58:01;2.50;82.80
17998;DHT22;9124;48.144;17.098;2024-01-27T22:02:28;2.60;83.30
17998;DHT22;9124;48.144;17.098;2024-01-27T22:06:55;2.60;83.80
17998;DHT22;9124;48.144;17.098;2024-01-27T22:11:22;2.50;84.40
17998;DHT22;9124;48.144;17.098;2024-01-27T22:15:50;2.80;86.00
17998;DHT22;9124;48.144;17.098;2024-01-27T22:20:16;3.00;86.30
17998;DHT22;9124;48.144;17.098;2024-01-27T22:24:44;3.10;86.60
17998;DHT22;9124;48.144;17.098;2024-01-27T22:29:10;3.00;86.80
17998;DHT22;9124;48.144;17.098;2024-01-27T22:33:39;3.00;87.20
17998;DHT22;9124;48.144;17.098;2024-01-27T22:38:06;2.80;87.60
17998;DHT22;9124;48.144;17.098;2024-01-27T22:42:33;2.70;87.80
17998;DHT22;9124;48.144;17.098;2024-01-27T22:46:59;2.60;88.60
17998;DHT22;9124;48.144;17.098;2024-01-27T22:51:27;2.50;89.30
17998;DHT22;9124;48.144;17.098;2024-01-27T22:55:56;2.50;90.10
17998;DHT22;9124;48.144;17.098;2024-01-27T23:00:22;2.70;90.60
17998;DHT22;9124;48.144;17.098;2024-01-27T23:05:03;2.90;90.90
17998;DHT22;9124;48.144;17.098;2024-01-27T23:09:31;3.20;91.60
17998;DHT22;9124;48.144;17.098;2024-01-27T23:13:57;3.40;91.50
17998;DHT22;9124;48.144;17.098;2024-01-27T23:18:26;3.50;91.20
17998;DHT22;9124;48.144;17.098;2024-01-27T23:22:52;3.60;91.30
17998;DHT22;9124;48.144;17.098;2024-01-27T23:27:20;3.70;91.20
17998;DHT22;9124;48.144;17.098;2024-01-27T23:31:46;3.60;91.10
17998;DHT22;9124;48.144;17.098;2024-01-27T23:36:15;3.50;91.10
17998;DHT22;9124;48.144;17.098;2024-01-27T23:40:42;3.40;91.40
17998;DHT22;9124;48.144;17.098;2024-01-27T23:45:08;3.30;91.60
17998;DHT22;9124;48.144;17.098;2024-01-27T23:49:35;3.20;91.60
17998;DHT22;9124;48.144;17.098;2024-01-27T23:54:02;3.00;91.90
17998;DHT22;9124;48.144;17.098;2024-01-27T23:58:38;2.80;92.00
